createdAt,value
2018-04-17T00:01:41.599Z,84.90
2018-04-17T00:04:09.136Z,85.30
2018-04-17T00:06:37.409Z,85.40
2018-04-17T00:09:05.645Z,85.50
2018-04-17T00:11:33.939Z,85.60
2018-04-17T00:14:02.341Z,85.70
2018-04-17T00:16:29.858Z,85.70
2018-04-17T00:18:58.121Z,86.60
2018-04-17T00:21:27.171Z,85.60
2018-04-17T00:23:54.680Z,85.60
2018-04-17T00:26:22.948Z,85.50
2018-04-17T00:28:50.444Z,85.50
2018-04-17T00:31:18.058Z,85.40
2018-04-17T00:33:45.574Z,85.40
2018-04-17T00:36:13.097Z,85.50
2018-04-17T00:38:40.582Z,85.40
2018-04-17T00:41:08.814Z,85.60
2018-04-17T00:43:36.352Z,85.40
2018-04-17T00:46:03.881Z,85.60
2018-04-17T00:48:32.153Z,85.60
2018-04-17T00:50:59.643Z,85.50
2018-04-17T00:53:40.045Z,85.60
2018-04-17T00:56:07.529Z,85.60
2018-04-17T00:58:35.049Z,85.90
2018-04-17T01:01:02.535Z,85.80
2018-04-17T01:03:30.022Z,85.70
2018-04-17T01:05:57.524Z,85.90
2018-04-17T01:08:25.827Z,86.50
2018-04-17T01:10:53.368Z,86.30
2018-04-17T01:13:20.880Z,86.40
2018-04-17T01:15:48.440Z,86.40
2018-04-17T01:18:22.196Z,86.40
2018-04-17T01:20:49.697Z,86.50
2018-04-17T01:23:17.209Z,86.30
2018-04-17T01:25:44.706Z,86.00
2018-04-17T01:28:12.226Z,86.20
2018-04-17T01:30:39.712Z,86.30
2018-04-17T01:33:07.192Z,86.40
2018-04-17T01:35:35.456Z,86.20
2018-04-17T01:38:02.959Z,86.20
2018-04-17T01:40:30.573Z,86.20
2018-04-17T01:42:58.075Z,86.00
2018-04-17T01:45:25.592Z,86.30
2018-04-17T01:47:53.103Z,86.80
2018-04-17T01:50:20.558Z,86.90
2018-04-17T01:52:48.111Z,86.80
2018-04-17T01:55:15.677Z,86.60
2018-04-17T01:57:43.236Z,86.60
2018-04-17T02:00:10.755Z,86.30
2018-04-17T02:02:39.079Z,86.00
2018-04-17T02:05:06.587Z,85.80
2018-04-17T02:07:34.074Z,85.50
2018-04-17T02:10:02.394Z,85.90
2018-04-17T02:12:29.911Z,85.90
2018-04-17T02:14:58.161Z,86.30
2018-04-17T02:17:25.756Z,86.20
2018-04-17T02:19:54.064Z,86.50
2018-04-17T02:22:21.583Z,86.50
2018-04-17T02:24:49.142Z,86.70
2018-04-17T02:27:16.657Z,86.90
2018-04-17T02:29:44.159Z,86.80
2018-04-17T02:32:11.688Z,86.70
2018-04-17T02:34:39.182Z,86.80
2018-04-17T02:37:06.727Z,86.90
2018-04-17T02:39:35.383Z,86.80
2018-04-17T02:42:02.882Z,86.80
2018-04-17T02:44:30.370Z,87.00
2018-04-17T02:46:58.618Z,87.00
2018-04-17T02:49:26.136Z,86.80
2018-04-17T02:51:54.393Z,87.10
2018-04-17T02:54:21.883Z,87.00
2018-04-17T02:56:49.381Z,87.10
2018-04-17T02:59:16.914Z,87.20
2018-04-17T03:01:44.412Z,88.30
2018-04-17T03:04:11.938Z,88.30
2018-04-17T03:06:39.498Z,88.30
2018-04-17T03:09:06.997Z,88.30
2018-04-17T03:11:35.984Z,88.50
2018-04-17T03:14:03.498Z,88.50
2018-04-17T03:16:31.025Z,88.40
2018-04-17T03:18:59.320Z,88.60
2018-04-17T03:21:26.795Z,88.50
2018-04-17T03:23:54.334Z,88.40
2018-04-17T03:26:21.834Z,88.50
2018-04-17T03:28:49.320Z,88.50
2018-04-17T03:31:16.779Z,88.60
2018-04-17T03:33:44.281Z,88.50
2018-04-17T03:36:12.521Z,88.50
2018-04-17T03:38:40.055Z,88.50
2018-04-17T03:41:07.585Z,88.60
2018-04-17T03:43:35.062Z,88.60
2018-04-17T03:46:02.600Z,88.80
2018-04-17T03:48:30.102Z,88.90
2018-04-17T03:50:57.654Z,89.00
2018-04-17T03:53:25.210Z,88.90
2018-04-17T03:55:52.775Z,89.20
2018-04-17T03:58:20.277Z,89.00
2018-04-17T04:00:47.741Z,88.70
2018-04-17T04:03:15.217Z,88.60
2018-04-17T04:05:42.731Z,88.60
2018-04-17T04:08:11.047Z,88.80
2018-04-17T04:10:38.627Z,88.70
2018-04-17T04:13:06.161Z,88.90
2018-04-17T04:15:33.701Z,88.80
2018-04-17T04:18:14.000Z,88.60
2018-04-17T04:20:53.525Z,88.40
2018-04-17T04:23:32.957Z,88.60
2018-04-17T04:26:35.271Z,88.40
2018-04-17T04:29:02.747Z,88.10
2018-04-17T04:31:30.233Z,88.90
2018-04-17T04:33:57.761Z,88.20
2018-04-17T04:36:25.245Z,88.30
2018-04-17T04:38:52.772Z,88.30
2018-04-17T04:41:21.068Z,88.20
2018-04-17T04:43:49.062Z,88.20
2018-04-17T04:46:16.526Z,88.20
2018-04-17T04:48:44.019Z,88.50
2018-04-17T04:51:11.506Z,88.80
2018-04-17T04:53:38.987Z,88.90
2018-04-17T04:56:07.254Z,88.70
2018-04-17T04:58:35.505Z,88.70
2018-04-17T05:01:03.909Z,88.60
2018-04-17T05:03:31.409Z,88.50
2018-04-17T05:05:58.903Z,88.40
2018-04-17T05:08:27.148Z,88.20
2018-04-17T05:10:54.691Z,88.00
2018-04-17T05:13:22.225Z,88.80
2018-04-17T05:15:49.717Z,87.80
2018-04-17T05:18:17.216Z,87.60
2018-04-17T05:20:44.738Z,87.70
2018-04-17T05:23:12.270Z,87.50
2018-04-17T05:25:40.527Z,87.60
2018-04-17T05:28:08.825Z,87.70
2018-04-17T05:30:36.332Z,87.70
2018-04-17T05:33:04.592Z,87.50
2018-04-17T05:35:32.916Z,87.40
2018-04-17T05:38:00.579Z,87.40
2018-04-17T05:40:28.988Z,87.40
2018-04-17T05:42:56.492Z,87.40
2018-04-17T05:45:24.013Z,87.50
2018-04-17T05:47:51.560Z,87.30
2018-04-17T05:50:19.819Z,87.40
2018-04-17T05:52:48.139Z,87.80
2018-04-17T05:55:15.607Z,87.40
2018-04-17T05:57:43.115Z,87.50
2018-04-17T06:00:11.364Z,86.60
2018-04-17T06:02:38.847Z,86.50
2018-04-17T06:05:07.169Z,86.40
2018-04-17T06:07:34.647Z,87.00
2018-04-17T06:10:02.129Z,86.30
2018-04-17T06:12:30.391Z,86.40
2018-04-17T06:14:57.907Z,87.00
2018-04-17T06:17:25.837Z,86.40
2018-04-17T06:19:53.283Z,86.50
2018-04-17T06:22:20.790Z,86.60
2018-04-17T06:24:48.293Z,86.50
2018-04-17T06:27:16.629Z,86.70
2018-04-17T06:29:44.988Z,86.70
2018-04-17T06:32:13.309Z,86.90
2018-04-17T06:34:40.769Z,86.70
2018-04-17T06:37:08.339Z,87.00
2018-04-17T06:39:37.055Z,87.00
2018-04-17T06:42:05.364Z,87.00
2018-04-17T06:44:33.627Z,86.80
2018-04-17T06:47:01.172Z,86.80
2018-04-17T06:49:29.432Z,86.70
2018-04-17T06:51:56.938Z,86.60
2018-04-17T06:54:24.414Z,86.50
2018-04-17T06:56:52.766Z,86.30
2018-04-17T06:59:20.371Z,86.30
2018-04-17T07:01:47.984Z,86.20
2018-04-17T07:04:15.456Z,86.00
2018-04-17T07:06:42.977Z,85.90
2018-04-17T07:09:11.276Z,85.70
2018-04-17T07:11:39.024Z,85.70
2018-04-17T07:14:06.435Z,85.60
2018-04-17T07:16:34.051Z,85.50
2018-04-17T07:19:01.538Z,85.40
2018-04-17T07:21:29.001Z,85.30
2018-04-17T07:23:56.451Z,85.10
2018-04-17T07:26:23.941Z,84.90
2018-04-17T07:28:51.821Z,84.80
2018-04-17T07:31:19.301Z,84.50
2018-04-17T07:33:46.856Z,84.10
2018-04-17T07:36:14.362Z,83.60
2018-04-17T07:38:42.598Z,83.80
2018-04-17T07:41:10.078Z,83.70
2018-04-17T07:43:37.524Z,83.50
2018-04-17T07:46:05.008Z,83.30
2018-04-17T07:48:44.619Z,83.10
2018-04-17T07:51:12.136Z,83.00
2018-04-17T07:53:39.648Z,82.50
2018-04-17T07:56:07.256Z,82.20
2018-04-17T08:01:11.465Z,81.40
2018-04-17T08:03:39.701Z,80.60
2018-04-17T08:06:07.251Z,80.50
2018-04-17T08:08:34.748Z,80.20
2018-04-17T08:11:03.070Z,79.50
2018-04-17T08:13:30.614Z,79.50
2018-04-17T08:15:58.313Z,79.20
2018-04-17T08:18:25.853Z,79.00
2018-04-17T08:20:53.340Z,78.90
2018-04-17T08:23:20.878Z,78.50
2018-04-17T08:25:48.393Z,78.20
2018-04-17T08:28:15.978Z,78.00
2018-04-17T08:30:43.485Z,77.60
2018-04-17T08:33:10.959Z,77.20
2018-04-17T08:35:38.435Z,76.90
2018-04-17T08:38:05.897Z,76.70
2018-04-17T08:40:33.368Z,76.70
2018-04-17T08:43:01.678Z,76.10
2018-04-17T08:45:29.241Z,76.10
2018-04-17T08:47:56.762Z,76.00
2018-04-17T08:50:24.310Z,76.00
2018-04-17T08:52:51.778Z,75.60
2018-04-17T08:55:19.254Z,75.20
2018-04-17T08:57:46.843Z,74.70
2018-04-17T09:00:14.280Z,74.20
2018-04-17T09:02:42.582Z,73.50
2018-04-17T09:05:10.092Z,73.50
2018-04-17T09:07:37.600Z,73.10
2018-04-17T09:10:05.053Z,72.40
2018-04-17T09:12:32.613Z,71.60
2018-04-17T09:15:00.171Z,71.30
2018-04-17T09:17:28.209Z,71.10
2018-04-17T09:19:55.670Z,70.60
2018-04-17T09:22:23.206Z,70.20
2018-04-17T09:24:50.765Z,70.00
2018-04-17T09:27:18.222Z,69.40
2018-04-17T09:29:45.811Z,69.10
2018-04-17T09:32:13.335Z,66.60
2018-04-17T09:34:40.829Z,66.00
2018-04-17T09:37:08.868Z,65.20
2018-04-17T09:39:36.882Z,64.50
2018-04-17T09:42:04.358Z,64.00
2018-04-17T09:44:32.941Z,63.30
2018-04-17T09:47:01.147Z,62.50
2018-04-17T09:49:28.603Z,62.40
2018-04-17T09:51:56.132Z,61.20
2018-04-17T09:54:23.602Z,60.50
2018-04-17T09:56:51.091Z,60.20
2018-04-17T09:59:18.627Z,59.90
2018-04-17T10:01:46.103Z,59.90
2018-04-17T10:04:13.621Z,60.40
2018-04-17T10:06:41.099Z,60.90
2018-04-17T10:09:08.674Z,60.60
2018-04-17T10:11:36.230Z,59.90
2018-04-17T10:14:03.825Z,59.60
2018-04-17T10:16:32.126Z,58.20
2018-04-17T10:18:59.665Z,58.20
2018-04-17T10:21:27.199Z,57.20
2018-04-17T10:23:54.759Z,56.00
2018-04-17T10:26:22.319Z,55.90
2018-04-17T10:28:49.822Z,55.40
2018-04-17T10:31:18.830Z,52.80
2018-04-17T10:33:46.332Z,52.70
2018-04-17T10:36:13.817Z,51.80
2018-04-17T10:38:41.325Z,49.00
2018-04-17T10:41:08.911Z,48.20
2018-04-17T10:43:36.395Z,47.70
2018-04-17T10:46:03.879Z,46.30
2018-04-17T10:48:31.359Z,46.30
2018-04-17T10:50:58.829Z,46.90
2018-04-17T10:53:26.301Z,43.00
2018-04-17T10:55:53.795Z,42.00
2018-04-17T10:58:22.109Z,40.10
2018-04-17T11:00:49.653Z,40.00
2018-04-17T11:03:17.225Z,39.90
2018-04-17T11:05:44.846Z,41.50
2018-04-17T11:08:12.333Z,43.10
2018-04-17T11:10:39.956Z,43.00
2018-04-17T11:13:07.507Z,42.50
2018-04-17T11:15:35.063Z,41.80
2018-04-17T11:18:02.623Z,42.10
2018-04-17T11:20:30.119Z,41.90
2018-04-17T11:22:58.359Z,43.10
2018-04-17T11:25:25.822Z,42.50
2018-04-17T11:27:53.305Z,41.80
2018-04-17T11:30:20.822Z,41.00
2018-04-17T11:32:48.381Z,40.40
2018-04-17T11:35:15.885Z,39.60
2018-04-17T11:37:43.400Z,39.10
2018-04-17T11:40:10.915Z,39.10
2018-04-17T11:42:39.320Z,38.70
2018-04-17T11:45:06.809Z,39.10
2018-04-17T11:47:35.228Z,39.40
2018-04-17T11:50:02.712Z,39.40
2018-04-17T11:52:30.997Z,39.50
2018-04-17T11:54:59.306Z,39.10
2018-04-17T11:57:26.786Z,39.10
2018-04-17T11:59:54.295Z,39.10
2018-04-17T12:02:21.852Z,39.00
2018-04-17T12:04:50.121Z,37.90
2018-04-17T12:07:17.619Z,37.90
2018-04-17T12:09:45.191Z,38.00
2018-04-17T12:12:12.753Z,37.90
2018-04-17T12:14:40.727Z,37.50
2018-04-17T12:17:08.954Z,36.60
2018-04-17T12:19:36.572Z,36.60
2018-04-17T12:22:04.867Z,35.70
2018-04-17T12:24:32.379Z,35.70
2018-04-17T12:27:00.010Z,35.50
2018-04-17T12:29:27.466Z,35.20
2018-04-17T12:31:54.980Z,35.10
2018-04-17T12:34:23.250Z,34.20
2018-04-17T12:36:51.544Z,33.50
2018-04-17T12:39:19.798Z,33.70
2018-04-17T12:41:47.309Z,33.70
2018-04-17T12:44:14.811Z,34.10
2018-04-17T12:46:42.340Z,34.40
2018-04-17T12:49:09.837Z,34.60
2018-04-17T12:51:38.315Z,34.90
2018-04-17T12:54:05.843Z,34.00
2018-04-17T12:56:34.124Z,33.10
2018-04-17T12:59:02.428Z,33.10
2018-04-17T13:01:29.985Z,33.00
2018-04-17T13:03:57.479Z,33.20
2018-04-17T13:06:24.953Z,32.90
2018-04-17T13:08:53.273Z,33.10
2018-04-17T13:11:20.769Z,33.10
2018-04-17T13:13:48.307Z,33.30
2018-04-17T13:16:15.820Z,33.20
2018-04-17T13:18:43.306Z,33.20
2018-04-17T13:21:10.785Z,33.20
2018-04-17T13:23:38.329Z,33.00
2018-04-17T13:26:05.833Z,33.40
2018-04-17T13:28:33.338Z,33.60
2018-04-17T13:31:00.856Z,33.80
2018-04-17T13:33:28.333Z,34.10
2018-04-17T13:35:55.863Z,34.60
2018-04-17T13:38:23.351Z,35.20
2018-04-17T13:40:50.892Z,35.90
2018-04-17T13:43:19.196Z,35.60
2018-04-17T13:45:46.758Z,35.60
2018-04-17T13:48:19.908Z,35.00
2018-04-17T13:50:47.421Z,34.60
2018-04-17T13:53:14.927Z,33.90
2018-04-17T13:55:43.254Z,32.30
2018-04-17T13:58:10.750Z,32.20
2018-04-17T14:00:38.230Z,32.30
2018-04-17T14:03:05.881Z,32.20
2018-04-17T14:05:33.380Z,31.60
2018-04-17T14:08:00.902Z,31.70
2018-04-17T14:10:29.234Z,32.80
2018-04-17T14:12:56.756Z,32.20
2018-04-17T14:15:25.068Z,32.10
2018-04-17T14:17:52.574Z,32.00
2018-04-17T14:20:20.200Z,31.80
2018-04-17T14:22:47.689Z,32.10
2018-04-17T14:25:15.310Z,32.50
2018-04-17T14:27:43.325Z,31.70
2018-04-17T14:30:10.819Z,31.50
2018-04-17T14:32:38.467Z,31.60
2018-04-17T14:35:06.027Z,31.80
2018-04-17T14:37:33.528Z,32.00
2018-04-17T14:40:01.057Z,32.10
2018-04-17T14:42:29.467Z,32.20
2018-04-17T14:44:57.039Z,32.20
2018-04-17T14:47:24.585Z,32.30
2018-04-17T14:49:52.843Z,31.50
2018-04-17T14:52:21.121Z,31.40
2018-04-17T14:54:48.620Z,32.10
2018-04-17T14:57:16.141Z,31.30
2018-04-17T14:59:44.015Z,31.40
2018-04-17T15:02:11.523Z,31.30
2018-04-17T15:04:39.039Z,30.80
2018-04-17T15:07:06.572Z,30.90
2018-04-17T15:09:34.086Z,30.80
2018-04-17T15:12:01.624Z,30.70
2018-04-17T15:14:29.943Z,30.80
2018-04-17T15:16:57.422Z,30.80
2018-04-17T15:19:24.914Z,30.50
2018-04-17T15:21:52.492Z,30.50
2018-04-17T15:24:20.034Z,29.90
2018-04-17T15:26:47.610Z,27.70
2018-04-17T15:29:15.166Z,25.60
2018-04-17T15:31:43.403Z,21.50
2018-04-17T15:34:10.919Z,21.40
2018-04-17T15:36:39.172Z,17.50
2018-04-17T15:39:06.663Z,17.50
2018-04-17T15:41:34.147Z,17.50
2018-04-17T15:44:01.685Z,15.10
2018-04-17T15:46:29.214Z,13.90
2018-04-17T15:48:57.831Z,14.30
2018-04-17T15:51:25.318Z,14.30
2018-04-17T15:53:52.837Z,14.80
2018-04-17T15:56:20.327Z,15.70
2018-04-17T15:58:47.956Z,17.10
2018-04-17T16:01:15.491Z,18.00
2018-04-17T16:03:43.034Z,18.90
2018-04-17T16:06:10.547Z,18.80
2018-04-17T16:08:38.067Z,18.70
2018-04-17T16:11:06.317Z,16.40
2018-04-17T16:13:33.825Z,16.40
2018-04-17T16:16:01.332Z,14.70
2018-04-17T16:18:28.846Z,14.00
2018-04-17T16:20:56.352Z,14.50
2018-04-17T16:23:24.606Z,15.60
2018-04-17T16:25:52.092Z,15.60
2018-04-17T16:28:20.374Z,17.90
2018-04-17T16:30:47.836Z,17.80
2018-04-17T16:33:15.400Z,19.60
2018-04-17T16:35:43.620Z,19.60
2018-04-17T16:38:11.149Z,20.10
2018-04-17T16:40:38.649Z,20.80
2018-04-17T16:43:06.174Z,21.80
2018-04-17T16:45:33.672Z,23.00
2018-04-17T16:48:01.287Z,23.90
2018-04-17T16:50:28.800Z,24.90
2018-04-17T16:52:57.130Z,26.20
2018-04-17T16:55:24.645Z,26.20
2018-04-17T16:57:52.908Z,27.90
2018-04-17T17:00:21.236Z,28.50
2018-04-17T17:02:48.758Z,28.50
2018-04-17T17:05:16.261Z,29.20
2018-04-17T17:07:43.768Z,29.80
2018-04-17T17:10:11.326Z,30.00
2018-04-17T17:12:38.828Z,30.30
2018-04-17T17:15:06.317Z,30.70
2018-04-17T17:17:34.593Z,31.90
2018-04-17T17:20:02.070Z,31.80
2018-04-17T17:22:30.359Z,32.10
2018-04-17T17:24:57.917Z,32.10
2018-04-17T17:27:25.444Z,32.30
2018-04-17T17:29:53.053Z,32.70
2018-04-17T17:32:20.530Z,33.80
2018-04-17T17:34:48.039Z,33.90
2018-04-17T17:37:16.312Z,34.70
2018-04-17T17:39:43.897Z,34.60
2018-04-17T17:42:12.147Z,35.50
2018-04-17T17:44:39.663Z,35.50
2018-04-17T17:47:07.159Z,36.40
2018-04-17T17:49:34.907Z,36.30
2018-04-17T17:52:02.478Z,36.50
2018-04-17T17:54:30.034Z,36.70
2018-04-17T17:56:57.510Z,37.30
2018-04-17T17:59:25.030Z,37.40
2018-04-17T18:01:52.545Z,37.60
2018-04-17T18:04:20.869Z,38.40
2018-04-17T18:06:48.355Z,38.40
2018-04-17T18:09:15.835Z,38.40
2018-04-17T18:11:44.150Z,38.90
2018-04-17T18:14:11.642Z,38.90
2018-04-17T18:16:39.271Z,39.50
2018-04-17T18:19:06.838Z,39.50
2018-04-17T18:21:34.371Z,39.60
2018-04-17T18:24:01.945Z,39.60
2018-04-17T18:26:29.620Z,40.80
2018-04-17T18:28:57.152Z,41.90
2018-04-17T18:31:25.255Z,41.90
2018-04-17T18:33:52.827Z,43.40
2018-04-17T18:36:20.400Z,44.70
2018-04-17T18:38:47.881Z,45.90
2018-04-17T18:41:15.386Z,47.10
2018-04-17T18:43:43.663Z,49.00
2018-04-17T18:46:11.923Z,49.80
2018-04-17T18:48:40.230Z,50.50
2018-04-17T18:51:07.852Z,50.40
2018-04-17T18:53:35.410Z,51.00
2018-04-17T18:56:02.927Z,51.50
2018-04-17T18:58:30.970Z,52.30
2018-04-17T19:00:58.626Z,52.90
2018-04-17T19:03:26.099Z,53.50
2018-04-17T19:05:53.605Z,54.00
2018-04-17T19:08:21.846Z,54.80
2018-04-17T19:10:49.376Z,54.70
2018-04-17T19:13:16.880Z,55.10
2018-04-17T19:15:44.499Z,55.70
2018-04-17T19:18:11.991Z,56.10
2018-04-17T19:20:39.534Z,56.70
2018-04-17T19:23:07.059Z,57.00
2018-04-17T19:25:35.315Z,57.30
2018-04-17T19:28:04.299Z,57.50
2018-04-17T19:30:31.805Z,57.40
2018-04-17T19:32:59.415Z,57.60
2018-04-17T19:35:26.885Z,57.80
2018-04-17T19:37:54.359Z,58.10
2018-04-17T19:40:21.858Z,58.30
2018-04-17T19:42:49.364Z,58.40
2018-04-17T19:45:18.349Z,58.50
2018-04-17T19:47:46.287Z,58.50
2018-04-17T19:50:13.818Z,58.80
2018-04-17T19:52:41.341Z,59.00
2018-04-17T19:55:08.821Z,59.30
2018-04-17T19:57:36.350Z,59.70
2018-04-17T20:00:03.872Z,60.30
2018-04-17T20:02:31.364Z,60.60
2018-04-17T20:04:58.851Z,60.80
2018-04-17T20:07:27.147Z,61.00
2018-04-17T20:09:54.765Z,61.00
2018-04-17T20:12:22.265Z,61.30
2018-04-17T20:14:49.867Z,61.80
2018-04-17T20:17:17.451Z,61.90
2018-04-17T20:19:45.658Z,62.50
2018-04-17T20:22:13.184Z,62.70
2018-04-17T20:24:40.669Z,63.00
2018-04-17T20:27:08.171Z,63.00
2018-04-17T20:29:36.075Z,62.80
2018-04-17T20:32:03.666Z,62.90
2018-04-17T20:34:31.172Z,63.20
2018-04-17T20:36:59.498Z,63.90
2018-04-17T20:39:26.977Z,63.10
2018-04-17T20:41:54.601Z,63.10
2018-04-17T20:44:22.132Z,63.20
2018-04-17T20:46:49.641Z,63.10
2018-04-17T20:49:17.153Z,63.40
2018-04-17T20:51:44.665Z,63.30
2018-04-17T20:54:12.154Z,62.90
2018-04-17T20:56:39.623Z,62.60
2018-04-17T20:59:07.091Z,62.20
2018-04-17T21:01:34.601Z,62.40
2018-04-17T21:04:02.876Z,62.20
2018-04-17T21:06:31.179Z,62.40
2018-04-17T21:08:58.670Z,62.30
2018-04-17T21:11:26.144Z,62.60
2018-04-17T21:13:53.670Z,63.00
2018-04-17T21:16:21.921Z,63.80
2018-04-17T21:18:49.444Z,63.70
2018-04-17T21:21:17.717Z,64.10
2018-04-17T21:23:45.957Z,64.40
2018-04-17T21:26:13.427Z,64.40
2018-04-17T21:28:40.899Z,64.80
2018-04-17T21:31:08.478Z,64.50
2018-04-17T21:33:35.969Z,64.80
2018-04-17T21:36:03.530Z,65.40
2018-04-17T21:38:31.053Z,65.50
2018-04-17T21:40:58.541Z,65.40
2018-04-17T21:43:26.027Z,65.40
2018-04-17T21:45:53.555Z,65.40
2018-04-17T21:48:21.047Z,65.70
2018-04-17T21:50:48.521Z,65.50
2018-04-17T21:53:16.026Z,65.50
2018-04-17T21:55:44.342Z,66.10
2018-04-17T21:58:11.899Z,66.20
2018-04-17T22:00:39.373Z,66.40
2018-04-17T22:03:06.873Z,66.50
2018-04-17T22:05:34.386Z,66.90
2018-04-17T22:08:01.940Z,67.30
2018-04-17T22:10:30.186Z,68.10
2018-04-17T22:12:58.038Z,68.10
2018-04-17T22:15:25.542Z,68.80
2018-04-17T22:17:53.856Z,69.70
2018-04-17T22:20:21.386Z,69.70
2018-04-17T22:22:48.892Z,70.20
2018-04-17T22:25:16.403Z,70.80
2018-04-17T22:27:43.944Z,70.50
2018-04-17T22:30:12.225Z,70.60
2018-04-17T22:32:39.732Z,70.50
2018-04-17T22:35:07.232Z,70.40
2018-04-17T22:37:35.538Z,70.60
2018-04-17T22:40:03.154Z,70.50
2018-04-17T22:42:30.664Z,70.80
2018-04-17T22:44:58.939Z,71.00
2018-04-17T22:47:27.182Z,71.20
2018-04-17T22:49:54.667Z,71.20
2018-04-17T22:52:22.176Z,71.20
2018-04-17T22:54:50.474Z,71.60
2018-04-17T22:57:17.982Z,71.50
2018-04-17T22:59:46.263Z,71.10
2018-04-17T23:02:13.868Z,71.00
2018-04-17T23:04:41.515Z,70.90
2018-04-17T23:07:09.074Z,70.90
2018-04-17T23:09:36.572Z,70.40
2018-04-17T23:12:04.072Z,70.20
2018-04-17T23:14:31.597Z,69.90
2018-04-17T23:16:59.848Z,69.80
2018-04-17T23:19:27.344Z,69.60
2018-04-17T23:21:54.841Z,69.90
2018-04-17T23:24:23.210Z,70.30
2018-04-17T23:26:50.696Z,70.30
2018-04-17T23:29:19.009Z,70.10
2018-04-17T23:31:47.288Z,70.10
2018-04-17T23:34:15.564Z,70.50
2018-04-17T23:36:43.877Z,70.60
2018-04-17T23:39:11.385Z,70.50
2018-04-17T23:41:38.995Z,70.60
2018-04-17T23:44:06.556Z,71.00
2018-04-17T23:46:34.050Z,71.10
2018-04-17T23:49:01.678Z,71.30
2018-04-17T23:51:29.209Z,71.50
2018-04-17T23:53:56.722Z,71.60
2018-04-17T23:56:24.386Z,72.10
2018-04-17T23:58:51.942Z,72.50
